createdAt,value
2019-03-20T00:00:47.259Z,2.43
2019-03-20T00:03:17.093Z,2.50
2019-03-20T00:05:46.927Z,2.60
2019-03-20T00:08:16.854Z,2.50
2019-03-20T00:10:46.689Z,2.77
2019-03-20T00:13:16.549Z,2.57
2019-03-20T00:15:46.397Z,2.40
2019-03-20T00:18:16.308Z,2.70
2019-03-20T00:20:46.145Z,2.77
2019-03-20T00:23:16.081Z,2.40
2019-03-20T00:25:46.066Z,2.87
2019-03-20T00:28:15.962Z,2.20
2019-03-20T00:30:45.802Z,2.80
2019-03-20T00:33:15.633Z,2.20
2019-03-20T00:35:45.467Z,2.40
2019-03-20T00:38:15.324Z,2.33
2019-03-20T00:40:45.293Z,2.77
2019-03-20T00:43:15.159Z,2.50
2019-03-20T00:45:45.009Z,2.70
2019-03-20T00:48:14.885Z,2.50
2019-03-20T00:50:44.893Z,2.60
2019-03-20T00:53:14.754Z,2.43
2019-03-20T00:55:44.610Z,2.87
2019-03-20T00:58:14.539Z,2.63
2019-03-20T01:00:44.474Z,2.50
2019-03-20T01:03:14.321Z,2.57
2019-03-20T01:05:44.166Z,2.73
2019-03-20T01:08:14.099Z,2.40
2019-03-20T01:10:43.938Z,2.83
2019-03-20T01:13:13.757Z,2.40
2019-03-20T01:15:43.618Z,2.43
2019-03-20T01:18:13.553Z,2.97
2019-03-20T01:20:43.463Z,2.77
2019-03-20T01:23:13.366Z,2.73
2019-03-20T01:25:43.282Z,2.70
2019-03-20T01:28:13.210Z,2.70
2019-03-20T01:30:43.043Z,2.70
2019-03-20T01:33:13.324Z,2.70
2019-03-20T01:35:43.452Z,2.60
2019-03-20T01:38:13.487Z,2.70
2019-03-20T01:40:43.331Z,2.80
2019-03-20T01:43:13.253Z,2.70
2019-03-20T01:45:43.112Z,2.60
2019-03-20T01:48:13.040Z,2.67
2019-03-20T01:50:42.863Z,2.50
2019-03-20T01:53:12.799Z,2.80
2019-03-20T01:55:42.666Z,2.57
2019-03-20T01:58:12.594Z,2.27
2019-03-20T02:00:42.514Z,2.70
2019-03-20T02:03:12.355Z,2.40
2019-03-20T02:05:42.402Z,2.60
2019-03-20T02:08:12.261Z,3.03
2019-03-20T02:10:42.090Z,2.73
2019-03-20T02:13:11.936Z,2.80
2019-03-20T02:15:41.884Z,2.40
2019-03-20T02:18:11.811Z,2.63
2019-03-20T02:20:41.665Z,2.57
2019-03-20T02:23:11.779Z,2.60
2019-03-20T02:25:42.371Z,2.53
2019-03-20T02:28:12.729Z,2.83
2019-03-20T02:30:43.216Z,2.67
2019-03-20T02:33:13.346Z,2.67
2019-03-20T02:35:51.584Z,2.77
2019-03-20T02:38:17.526Z,3.10
2019-03-20T02:40:47.743Z,3.13
2019-03-20T02:43:18.059Z,2.93
2019-03-20T02:46:07.885Z,2.53
2019-03-20T02:48:38.494Z,2.90
2019-03-20T02:51:08.702Z,2.60
2019-03-20T02:53:38.892Z,2.70
2019-03-20T02:56:09.108Z,2.90
2019-03-20T02:58:39.334Z,2.70
2019-03-20T03:01:09.693Z,2.80
2019-03-20T03:03:40.111Z,3.20
2019-03-20T03:06:10.308Z,2.80
2019-03-20T03:08:40.516Z,2.87
2019-03-20T03:11:10.682Z,2.70
2019-03-20T03:13:40.897Z,2.60
2019-03-20T03:16:11.092Z,3.30
2019-03-20T03:18:41.383Z,3.00
2019-03-20T03:21:11.560Z,2.60
2019-03-20T03:23:41.999Z,2.90
2019-03-20T03:26:12.219Z,2.73
2019-03-20T03:28:42.383Z,2.97
2019-03-20T03:31:12.513Z,3.17
2019-03-20T03:33:42.784Z,2.80
2019-03-20T03:36:21.004Z,3.27
2019-03-20T03:38:45.061Z,3.30
2019-03-20T03:41:15.236Z,2.87
2019-03-20T03:43:45.356Z,3.10
2019-03-20T03:46:15.533Z,3.03
2019-03-20T03:48:46.050Z,3.20
2019-03-20T03:51:17.097Z,3.10
2019-03-20T03:53:47.317Z,3.60
2019-03-20T03:56:17.649Z,3.27
2019-03-20T03:58:47.866Z,2.97
2019-03-20T04:01:18.096Z,3.00
2019-03-20T04:03:48.268Z,3.10
2019-03-20T04:06:18.481Z,3.17
2019-03-20T04:08:48.869Z,2.80
2019-03-20T04:11:19.200Z,3.07
2019-03-20T04:13:49.059Z,2.87
2019-03-20T04:16:18.882Z,3.30
2019-03-20T04:18:48.784Z,3.03
2019-03-20T04:21:18.622Z,3.07
2019-03-20T04:23:48.520Z,3.40
2019-03-20T04:26:18.345Z,4.23
2019-03-20T04:28:48.240Z,3.80
2019-03-20T04:31:18.095Z,4.00
2019-03-20T04:33:48.028Z,3.50
2019-03-20T04:36:17.858Z,3.40
2019-03-20T04:38:47.807Z,3.70
2019-03-20T04:41:17.646Z,3.80
2019-03-20T04:43:47.476Z,3.70
2019-03-20T04:46:17.323Z,3.60
2019-03-20T04:48:47.548Z,3.67
2019-03-20T04:51:17.402Z,3.90
2019-03-20T04:53:47.249Z,4.03
2019-03-20T04:56:17.085Z,3.90
2019-03-20T04:58:47.019Z,4.20
2019-03-20T05:01:16.866Z,4.13
2019-03-20T05:03:46.708Z,3.70
2019-03-20T05:06:16.564Z,4.63
2019-03-20T05:08:46.480Z,4.80
2019-03-20T05:11:16.338Z,4.53
2019-03-20T05:13:46.179Z,4.00
2019-03-20T05:16:16.015Z,4.60
2019-03-20T05:18:45.936Z,3.87
2019-03-20T05:21:16.612Z,4.67
2019-03-20T05:23:46.460Z,4.07
2019-03-20T05:26:16.295Z,3.83
2019-03-20T05:28:46.628Z,4.83
2019-03-20T05:31:37.231Z,4.30
2019-03-20T05:34:07.108Z,3.77
2019-03-20T05:36:37.439Z,4.13
2019-03-20T05:39:08.895Z,3.80
2019-03-20T05:41:38.753Z,3.87
2019-03-20T05:44:08.780Z,3.90
2019-03-20T05:46:38.736Z,3.80
2019-03-20T05:49:08.670Z,3.93
2019-03-20T05:51:38.543Z,3.70
2019-03-20T05:54:08.422Z,3.67
2019-03-20T05:56:38.265Z,4.30
2019-03-20T05:59:09.143Z,3.70
2019-03-20T06:01:39.010Z,3.80
2019-03-20T06:04:08.947Z,3.70
2019-03-20T06:06:39.039Z,3.93
2019-03-20T06:09:09.524Z,3.70
2019-03-20T06:11:39.639Z,4.03
2019-03-20T06:14:09.908Z,3.83
2019-03-20T06:16:40.116Z,4.47
2019-03-20T06:19:10.331Z,4.10
2019-03-20T06:21:40.575Z,3.90
2019-03-20T06:24:10.984Z,4.40
2019-03-20T06:26:59.981Z,4.40
2019-03-20T06:29:32.467Z,4.50
2019-03-20T06:32:02.662Z,5.00
2019-03-20T06:34:32.628Z,4.70
2019-03-20T06:37:03.000Z,4.73
2019-03-20T06:39:33.188Z,4.17
2019-03-20T06:42:03.445Z,4.37
2019-03-20T06:44:33.293Z,4.50
2019-03-20T06:47:03.172Z,4.50
2019-03-20T06:49:33.014Z,4.17
2019-03-20T06:52:02.870Z,4.30
2019-03-20T06:54:32.814Z,4.60
2019-03-20T06:57:03.159Z,4.73
2019-03-20T07:00:09.835Z,4.97
2019-03-20T07:02:42.209Z,4.70
2019-03-20T07:05:49.109Z,4.80
2019-03-20T07:08:20.170Z,4.93
2019-03-20T07:11:10.813Z,5.23
2019-03-20T07:13:40.945Z,5.20
2019-03-20T07:16:30.179Z,5.43
2019-03-20T07:19:00.227Z,5.27
2019-03-20T07:21:30.151Z,5.07
2019-03-20T07:24:00.112Z,5.03
2019-03-20T07:26:30.057Z,5.13
2019-03-20T07:29:00.093Z,5.30
2019-03-20T07:31:30.344Z,5.07
2019-03-20T07:34:00.580Z,5.90
2019-03-20T07:36:31.158Z,5.67
2019-03-20T07:39:01.208Z,5.20
2019-03-20T07:41:31.164Z,5.30
2019-03-20T07:44:01.171Z,5.00
2019-03-20T07:46:31.237Z,5.70
2019-03-20T07:49:01.177Z,5.23
2019-03-20T07:51:31.208Z,4.57
2019-03-20T07:54:01.088Z,5.30
2019-03-20T07:56:31.090Z,4.80
2019-03-20T07:59:01.140Z,5.13
2019-03-20T08:01:31.136Z,4.77
2019-03-20T08:04:01.175Z,4.53
2019-03-20T08:06:31.159Z,5.40
2019-03-20T08:09:01.649Z,5.50
2019-03-20T08:11:31.739Z,4.90
2019-03-20T08:14:02.227Z,5.03
2019-03-20T08:16:33.203Z,4.67
2019-03-20T08:19:04.767Z,4.90
2019-03-20T08:21:36.112Z,5.10
2019-03-20T08:24:06.514Z,5.37
2019-03-20T08:26:36.908Z,5.13
2019-03-20T08:29:08.520Z,5.00
2019-03-20T08:31:38.699Z,4.90
2019-03-20T08:34:08.887Z,4.70
2019-03-20T08:36:39.293Z,4.83
2019-03-20T08:39:09.372Z,4.80
2019-03-20T08:41:43.271Z,4.87
2019-03-20T08:44:10.944Z,4.43
2019-03-20T08:46:41.018Z,4.23
2019-03-20T08:49:11.094Z,4.53
2019-03-20T08:51:41.023Z,4.47
2019-03-20T08:54:11.077Z,4.07
2019-03-20T08:56:41.074Z,4.20
2019-03-20T08:59:11.191Z,4.03
2019-03-20T09:01:41.097Z,3.87
2019-03-20T09:04:11.094Z,3.97
2019-03-20T09:06:41.016Z,4.27
2019-03-20T09:09:12.111Z,4.17
2019-03-20T09:11:42.101Z,4.10
2019-03-20T09:14:12.115Z,4.30
2019-03-20T09:16:42.079Z,5.13
2019-03-20T09:19:12.135Z,5.40
2019-03-20T09:21:42.164Z,5.33
2019-03-20T09:24:12.252Z,5.17
2019-03-20T09:26:42.486Z,4.60
2019-03-20T09:29:18.539Z,4.40
2019-03-20T09:31:44.143Z,4.43
2019-03-20T09:34:14.084Z,3.77
2019-03-20T09:36:44.247Z,3.90
2019-03-20T09:39:14.230Z,3.73
2019-03-20T09:41:44.277Z,4.00
2019-03-20T09:44:17.346Z,4.50
2019-03-20T09:46:47.206Z,3.70
2019-03-20T09:49:17.325Z,3.83
2019-03-20T09:51:47.903Z,4.23
2019-03-20T09:54:18.014Z,3.90
2019-03-20T09:56:48.041Z,3.73
2019-03-20T09:59:18.030Z,3.63
2019-03-20T10:01:48.279Z,4.00
2019-03-20T10:04:18.130Z,3.60
2019-03-20T10:06:47.990Z,3.70
2019-03-20T10:09:17.975Z,3.80
2019-03-20T10:11:47.873Z,3.77
2019-03-20T10:14:17.911Z,3.97
2019-03-20T10:16:47.775Z,4.00
2019-03-20T10:19:18.486Z,3.50
2019-03-20T10:21:48.367Z,3.10
2019-03-20T10:24:18.850Z,3.87
2019-03-20T10:26:48.657Z,3.93
2019-03-20T10:29:18.575Z,3.70
2019-03-20T10:31:48.486Z,3.97
2019-03-20T10:34:18.335Z,3.63
2019-03-20T10:36:48.197Z,4.07
2019-03-20T10:39:18.148Z,3.50
2019-03-20T10:41:47.978Z,3.63
2019-03-20T10:44:17.851Z,3.63
2019-03-20T10:46:47.739Z,3.47
2019-03-20T10:49:17.739Z,3.73
2019-03-20T10:51:48.036Z,3.80
2019-03-20T10:54:17.930Z,3.53
2019-03-20T10:56:47.874Z,3.50
2019-03-20T10:59:17.859Z,3.70
2019-03-20T11:01:47.727Z,3.47
2019-03-20T11:04:17.552Z,3.40
2019-03-20T11:06:47.504Z,3.23
2019-03-20T11:09:18.666Z,3.90
2019-03-20T11:11:48.712Z,3.63
2019-03-20T11:14:18.560Z,3.50
2019-03-20T11:16:48.414Z,3.60
2019-03-20T11:19:19.044Z,3.40
2019-03-20T11:21:49.205Z,3.57
2019-03-20T11:24:19.050Z,3.67
2019-03-20T11:26:49.097Z,3.70
2019-03-20T11:29:21.691Z,3.50
2019-03-20T11:31:51.981Z,3.43
2019-03-20T11:34:21.844Z,3.63
2019-03-20T11:36:52.270Z,3.53
2019-03-20T11:39:29.479Z,3.03
2019-03-20T11:41:53.687Z,3.40
2019-03-20T11:44:23.645Z,3.53
2019-03-20T11:46:53.710Z,3.00
2019-03-20T11:49:23.634Z,3.47
2019-03-20T11:51:53.567Z,3.20
2019-03-20T11:54:23.579Z,3.40
2019-03-20T11:56:53.423Z,3.30
2019-03-20T11:59:23.317Z,3.13
2019-03-20T12:01:53.220Z,3.37
2019-03-20T12:04:23.301Z,3.10
2019-03-20T12:06:53.884Z,3.80
2019-03-20T12:09:25.814Z,3.50
2019-03-20T12:11:55.780Z,3.57
2019-03-20T12:14:25.652Z,3.30
2019-03-20T12:16:55.669Z,2.97
2019-03-20T12:19:25.730Z,3.53
2019-03-20T12:21:55.630Z,3.37
2019-03-20T12:24:25.512Z,3.30
2019-03-20T12:26:55.370Z,3.10
2019-03-20T12:29:25.237Z,3.47
2019-03-20T12:31:55.101Z,4.03
2019-03-20T12:34:24.983Z,3.60
2019-03-20T12:36:56.636Z,3.57
2019-03-20T12:39:26.453Z,3.80
2019-03-20T12:41:56.328Z,3.63
2019-03-20T12:44:26.341Z,4.00
2019-03-20T12:46:56.202Z,3.73
2019-03-20T12:49:26.131Z,3.90
2019-03-20T12:51:56.029Z,3.63
2019-03-20T12:54:25.869Z,3.60
2019-03-20T12:56:55.714Z,3.67
2019-03-20T12:59:25.646Z,3.57
2019-03-20T13:01:55.512Z,2.90
2019-03-20T13:04:25.397Z,3.37
2019-03-20T13:06:55.246Z,3.20
2019-03-20T13:09:25.378Z,3.37
2019-03-20T13:11:55.203Z,3.67
2019-03-20T13:14:25.070Z,3.57
2019-03-20T13:16:54.933Z,3.30
2019-03-20T13:19:25.092Z,3.30
2019-03-20T13:21:55.032Z,3.10
2019-03-20T13:24:24.935Z,3.07
2019-03-20T13:26:54.842Z,3.30
2019-03-20T13:29:24.854Z,3.12
2019-03-20T13:31:54.714Z,3.60
2019-03-20T13:34:24.638Z,3.35
2019-03-20T13:36:54.480Z,3.27
2019-03-20T13:39:24.390Z,3.10
2019-03-20T13:41:54.313Z,3.17
2019-03-20T13:44:24.167Z,3.70
2019-03-20T13:46:54.006Z,2.75
2019-03-20T13:49:24.062Z,2.90
2019-03-20T13:51:54.012Z,2.70
2019-03-20T13:54:23.854Z,2.60
2019-03-20T13:56:53.782Z,2.50
2019-03-20T13:59:23.733Z,2.40
2019-03-20T14:01:54.093Z,2.10
2019-03-20T14:04:24.065Z,2.40
2019-03-20T14:06:54.078Z,2.50
2019-03-20T14:09:24.245Z,2.42
2019-03-20T14:11:54.499Z,2.75
2019-03-20T14:14:24.690Z,2.65
2019-03-20T14:16:54.543Z,2.72
2019-03-20T14:19:24.935Z,2.58
2019-03-20T14:21:55.292Z,2.25
2019-03-20T14:24:25.213Z,2.40
2019-03-20T14:26:55.073Z,2.72
2019-03-20T14:29:24.947Z,2.35
2019-03-20T14:31:54.906Z,2.55
2019-03-20T14:34:24.941Z,2.70
2019-03-20T14:36:55.428Z,2.62
2019-03-20T14:39:25.316Z,2.65
2019-03-20T14:41:55.174Z,2.50
2019-03-20T14:44:25.378Z,2.30
2019-03-20T14:46:55.209Z,2.55
2019-03-20T14:49:25.094Z,2.58
2019-03-20T14:51:54.954Z,2.40
2019-03-20T14:54:24.814Z,2.50
2019-03-20T14:56:54.750Z,2.67
2019-03-20T14:59:24.666Z,2.37
2019-03-20T15:01:54.529Z,2.70
2019-03-20T15:04:24.407Z,2.50
2019-03-20T15:06:54.250Z,2.63
2019-03-20T15:09:24.186Z,2.53
2019-03-20T15:11:54.061Z,2.80
2019-03-20T15:14:23.894Z,2.62
2019-03-20T15:16:53.777Z,2.40
2019-03-20T15:19:23.656Z,2.40
2019-03-20T15:21:53.573Z,2.60
2019-03-20T15:24:23.542Z,2.57
2019-03-20T15:26:53.415Z,2.60
2019-03-20T15:29:23.301Z,2.90
2019-03-20T15:31:53.162Z,2.83
2019-03-20T15:34:23.125Z,3.20
2019-03-20T15:36:53.009Z,2.90
2019-03-20T15:39:23.906Z,3.60
2019-03-20T15:41:53.777Z,3.63
2019-03-20T15:44:23.661Z,3.50
2019-03-20T15:46:53.542Z,3.40
2019-03-20T15:49:23.544Z,3.20
2019-03-20T15:51:53.390Z,3.10
2019-03-20T15:54:23.250Z,3.03
2019-03-20T15:56:53.347Z,3.10
2019-03-20T15:59:24.255Z,2.80
2019-03-20T16:01:54.129Z,2.90
2019-03-20T16:04:23.982Z,3.57
2019-03-20T16:06:53.846Z,3.00
2019-03-20T16:09:23.933Z,3.20
2019-03-20T16:11:53.906Z,3.50
2019-03-20T16:14:23.781Z,3.17
2019-03-20T16:16:53.646Z,3.43
2019-03-20T16:19:23.595Z,2.87
2019-03-20T16:21:54.038Z,2.87
2019-03-20T16:24:24.022Z,2.67
2019-03-20T16:26:55.387Z,2.80
2019-03-20T16:29:25.355Z,3.20
2019-03-20T16:31:55.362Z,3.27
2019-03-20T16:34:25.230Z,3.17
2019-03-20T16:36:55.095Z,4.10
2019-03-20T16:39:25.179Z,3.87
2019-03-20T16:41:55.026Z,5.13
2019-03-20T16:44:24.890Z,4.37
2019-03-20T16:46:54.804Z,4.00
2019-03-20T16:49:24.732Z,3.70
2019-03-20T16:51:54.637Z,3.50
2019-03-20T16:54:24.515Z,3.80
2019-03-20T16:56:54.545Z,3.40
2019-03-20T16:59:24.433Z,3.87
2019-03-20T17:01:54.328Z,3.50
2019-03-20T17:04:24.162Z,3.20
2019-03-20T17:06:54.034Z,2.90
2019-03-20T17:09:25.039Z,3.00
2019-03-20T17:11:54.955Z,3.03
2019-03-20T17:14:24.923Z,3.07
2019-03-20T17:16:54.782Z,2.70
2019-03-20T17:19:24.669Z,2.90
2019-03-20T17:21:54.562Z,3.10
2019-03-20T17:24:24.501Z,2.97
2019-03-20T17:26:54.363Z,2.93
2019-03-20T17:29:24.291Z,2.60
2019-03-20T17:31:54.126Z,2.73
2019-03-20T17:34:23.983Z,2.70
2019-03-20T17:36:53.856Z,2.90
2019-03-20T17:39:23.787Z,2.73
2019-03-20T17:41:53.750Z,2.30
2019-03-20T17:44:23.675Z,2.80
2019-03-20T17:46:54.078Z,2.60
2019-03-20T17:49:24.476Z,2.50
2019-03-20T17:51:54.742Z,2.60
2019-03-20T17:54:25.052Z,2.20
2019-03-20T17:56:55.525Z,2.73
2019-03-20T17:59:25.820Z,2.97
2019-03-20T18:01:57.249Z,3.33
2019-03-20T18:04:27.217Z,3.17
2019-03-20T18:06:57.510Z,3.07
2019-03-20T18:09:47.486Z,3.13
2019-03-20T18:12:18.396Z,2.80
2019-03-20T18:14:48.619Z,3.03
2019-03-20T18:17:18.978Z,3.20
2019-03-20T18:19:49.097Z,3.07
2019-03-20T18:22:19.376Z,3.30
2019-03-20T18:24:50.496Z,3.47
2019-03-20T18:27:20.459Z,3.10
2019-03-20T18:29:50.337Z,3.27
2019-03-20T18:32:20.207Z,3.33
2019-03-20T18:34:50.106Z,3.33
2019-03-20T18:37:20.016Z,3.63
2019-03-20T18:39:49.888Z,3.13
2019-03-20T18:42:19.798Z,3.63
2019-03-20T18:44:49.679Z,3.00
2019-03-20T18:47:19.553Z,2.97
2019-03-20T18:49:49.471Z,3.23
2019-03-20T18:52:19.320Z,3.70
2019-03-20T18:54:49.180Z,3.10
2019-03-20T18:57:19.107Z,3.27
2019-03-20T18:59:49.451Z,2.90
2019-03-20T19:02:19.330Z,3.17
2019-03-20T19:04:49.173Z,3.30
2019-03-20T19:07:19.187Z,3.50
2019-03-20T19:09:49.084Z,3.10
2019-03-20T19:12:19.029Z,3.00
2019-03-20T19:14:48.904Z,3.33
2019-03-20T19:17:18.883Z,2.93
2019-03-20T19:19:48.757Z,2.93
2019-03-20T19:22:18.656Z,3.50
2019-03-20T19:24:48.535Z,4.00
2019-03-20T19:27:18.389Z,3.57
2019-03-20T19:29:48.248Z,3.83
2019-03-20T19:32:18.149Z,3.80
2019-03-20T19:34:48.076Z,3.73
2019-03-20T19:37:17.971Z,4.00
2019-03-20T19:39:47.858Z,4.00
2019-03-20T19:42:20.143Z,4.60
2019-03-20T19:44:49.343Z,3.90
2019-03-20T19:47:20.209Z,4.60
2019-03-20T19:49:50.364Z,4.60
2019-03-20T19:52:20.424Z,3.90
2019-03-20T19:54:50.271Z,4.47
2019-03-20T19:57:20.247Z,4.50
2019-03-20T19:59:50.123Z,4.30
2019-03-20T20:02:19.986Z,5.83
2019-03-20T20:05:15.761Z,7.03
2019-03-20T20:07:40.863Z,5.17
2019-03-20T20:10:12.077Z,8.70
2019-03-20T20:12:42.123Z,3.90
2019-03-20T20:15:14.565Z,6.57
2019-03-20T20:17:46.826Z,4.80
2019-03-20T20:20:17.582Z,4.90
2019-03-20T20:22:47.453Z,4.87
2019-03-20T20:25:17.519Z,5.50
2019-03-20T20:27:47.494Z,4.90
2019-03-20T20:30:18.208Z,5.33
2019-03-20T20:32:48.169Z,4.87
2019-03-20T20:35:18.167Z,4.97
2019-03-20T20:37:48.034Z,5.20
2019-03-20T20:40:18.276Z,5.53
2019-03-20T20:42:48.236Z,5.30
2019-03-20T20:45:18.285Z,5.33
2019-03-20T20:47:48.223Z,5.87
2019-03-20T20:50:18.391Z,5.10
2019-03-20T20:52:48.340Z,5.77
2019-03-20T20:55:18.287Z,5.30
2019-03-20T20:57:48.191Z,7.10
2019-03-20T21:00:19.594Z,13.07
2019-03-20T21:02:49.538Z,10.30
2019-03-20T21:05:19.517Z,8.60
2019-03-20T21:07:50.738Z,5.87
2019-03-20T21:10:20.739Z,7.13
2019-03-20T21:12:56.444Z,7.07
2019-03-20T21:15:45.855Z,6.60
2019-03-20T21:18:52.819Z,6.53
2019-03-20T21:21:23.416Z,5.00
2019-03-20T21:24:23.040Z,5.97
2019-03-20T21:27:46.444Z,5.90
2019-03-20T21:30:39.916Z,4.87
2019-03-20T21:33:15.059Z,4.77
2019-03-20T21:36:20.448Z,4.70
2019-03-20T21:38:51.548Z,5.57
2019-03-20T21:41:56.275Z,5.70
2019-03-20T21:45:21.063Z,6.30
2019-03-20T21:47:51.531Z,5.30
2019-03-20T21:51:00.648Z,5.20
2019-03-20T21:54:14.354Z,4.63
2019-03-20T21:56:49.311Z,4.93
2019-03-20T21:59:34.368Z,6.90
2019-03-20T22:02:44.847Z,5.23
2019-03-20T22:05:35.382Z,5.10
2019-03-20T22:08:08.312Z,5.17
2019-03-20T22:11:17.263Z,5.00
2019-03-20T22:13:52.091Z,5.00
2019-03-20T22:17:04.092Z,5.20
2019-03-20T22:19:55.000Z,4.80
2019-03-20T22:23:04.726Z,5.67
2019-03-20T22:26:12.523Z,6.43
2019-03-20T22:29:07.190Z,6.30
2019-03-20T22:31:39.517Z,6.03
2019-03-20T22:34:38.395Z,6.33
2019-03-20T22:37:08.772Z,5.80
2019-03-20T22:40:30.775Z,5.57
2019-03-20T22:43:09.817Z,5.47
2019-03-20T22:46:16.011Z,5.30
2019-03-20T22:49:08.151Z,5.40
2019-03-20T22:52:12.419Z,4.80
2019-03-20T22:55:13.413Z,4.50
2019-03-20T22:58:30.225Z,4.80
2019-03-20T23:01:00.653Z,5.27
2019-03-20T23:03:43.778Z,4.70
2019-03-20T23:06:14.212Z,4.70
2019-03-20T23:08:44.741Z,5.00
2019-03-20T23:11:15.163Z,4.20
2019-03-20T23:13:45.553Z,4.83
2019-03-20T23:16:17.479Z,4.83
2019-03-20T23:18:47.985Z,5.23
2019-03-20T23:21:18.335Z,4.83
2019-03-20T23:23:48.728Z,5.07
2019-03-20T23:26:19.111Z,4.73
2019-03-20T23:28:49.582Z,4.87
2019-03-20T23:31:19.970Z,5.00
2019-03-20T23:33:50.332Z,4.70
2019-03-20T23:36:20.695Z,4.63
2019-03-20T23:38:51.176Z,5.27
2019-03-20T23:41:21.614Z,4.93
2019-03-20T23:43:53.143Z,4.67
2019-03-20T23:46:24.243Z,4.47
2019-03-20T23:49:04.261Z,5.33
2019-03-20T23:51:34.687Z,4.60
2019-03-20T23:54:05.270Z,4.60
2019-03-20T23:56:37.012Z,5.63
2019-03-20T23:59:07.870Z,5.77
